sensor_id;sensor_type;location;lat;lon;timestamp;pressure;altitude;pressure_sealevel;temperature;humidity
53340;BME280;46212;50.258;19.062;2023-04-09T00:01:05;99153.19;;;5.54;96.34
53340;BME280;46212;50.258;19.062;2023-04-09T00:03:31;99151.25;;;5.51;96.80
53340;BME280;46212;50.258;19.062;2023-04-09T00:05:56;99156.66;;;5.58;96.88
53340;BME280;46212;50.258;19.062;2023-04-09T00:08:22;99156.25;;;5.59;97.12
53340;BME280;46212;50.258;19.062;2023-04-09T00:10:51;99146.69;;;5.41;97.80
53340;BME280;46212;50.258;19.062;2023-04-09T00:13:16;99137.31;;;5.38;98.29
53340;BME280;46212;50.258;19.062;2023-04-09T00:15:43;99142.78;;;5.38;98.79
53340;BME280;46212;50.258;19.062;2023-04-09T00:18:08;99144.38;;;5.35;99.40
53340;BME280;46212;50.258;19.062;2023-04-09T00:20:33;99146.75;;;5.33;99.19
53340;BME280;46212;50.258;19.062;2023-04-09T00:22:59;99152.63;;;5.32;99.28
53340;BME280;46212;50.258;19.062;2023-04-09T00:25:24;99155.25;;;5.43;98.89
53340;BME280;46212;50.258;19.062;2023-04-09T00:27:50;99157.56;;;5.48;98.36
53340;BME280;46212;50.258;19.062;2023-04-09T00:30:15;99157.91;;;5.50;98.10
53340;BME280;46212;50.258;19.062;2023-04-09T00:32:41;99161.19;;;5.38;98.67
53340;BME280;46212;50.258;19.062;2023-04-09T00:35:07;99160.41;;;5.37;98.58
53340;BME280;46212;50.258;19.062;2023-04-09T00:37:33;99164.06;;;5.23;98.53
53340;BME280;46212;50.258;19.062;2023-04-09T00:39:58;99161.81;;;5.15;98.98
53340;BME280;46212;50.258;19.062;2023-04-09T00:42:24;99161.88;;;5.04;99.92
53340;BME280;46212;50.258;19.062;2023-04-09T00:44:50;99164.31;;;4.95;100.00
53340;BME280;46212;50.258;19.062;2023-04-09T00:47:15;99164.41;;;4.88;100.00
53340;BME280;46212;50.258;19.062;2023-04-09T00:49:41;99173.03;;;4.83;100.00
53340;BME280;46212;50.258;19.062;2023-04-09T00:52:06;99161.69;;;4.85;100.00
53340;BME280;46212;50.258;19.062;2023-04-09T00:54:32;99165.25;;;4.78;100.00
53340;BME280;46212;50.258;19.062;2023-04-09T00:56:58;99170.31;;;4.79;100.00
53340;BME280;46212;50.258;19.062;2023-04-09T00:59:24;99163.31;;;4.78;100.00
53340;BME280;46212;50.258;19.062;2023-04-09T01:01:50;99166.03;;;4.78;100.00
53340;BME280;46212;50.258;19.062;2023-04-09T01:04:15;99169.59;;;4.75;100.00
53340;BME280;46212;50.258;19.062;2023-04-09T01:09:49;99165.56;;;4.91;100.00
53340;BME280;46212;50.258;19.062;2023-04-09T01:12:37;99159.75;;;4.81;100.00
53340;BME280;46212;50.258;19.062;2023-04-09T01:15:09;99156.22;;;4.85;100.00
53340;BME280;46212;50.258;19.062;2023-04-09T01:20:42;99150.25;;;4.97;100.00
53340;BME280;46212;50.258;19.062;2023-04-09T01:23:18;99156.88;;;4.96;100.00
53340;BME280;46212;50.258;19.062;2023-04-09T01:26:20;99156.09;;;4.95;100.00
53340;BME280;46212;50.258;19.062;2023-04-09T01:28:50;99157.63;;;5.03;100.00
53340;BME280;46212;50.258;19.062;2023-04-09T01:31:18;99167.47;;;4.94;100.00
53340;BME280;46212;50.258;19.062;2023-04-09T01:33:44;99170.88;;;5.05;99.45
53340;BME280;46212;50.258;19.062;2023-04-09T01:36:10;99165.94;;;4.89;99.28
53340;BME280;46212;50.258;19.062;2023-04-09T01:38:39;99162.91;;;4.76;100.00
53340;BME280;46212;50.258;19.062;2023-04-09T01:41:06;99160.94;;;4.80;100.00
53340;BME280;46212;50.258;19.062;2023-04-09T01:43:33;99166.72;;;4.90;100.00
53340;BME280;46212;50.258;19.062;2023-04-09T01:46:00;99172.25;;;4.82;100.00
53340;BME280;46212;50.258;19.062;2023-04-09T01:48:26;99179.31;;;4.80;99.84
53340;BME280;46212;50.258;19.062;2023-04-09T01:50:53;99177.03;;;4.71;99.99
53340;BME280;46212;50.258;19.062;2023-04-09T01:53:18;99180.19;;;4.66;100.00
53340;BME280;46212;50.258;19.062;2023-04-09T01:55:45;99178.59;;;4.72;100.00
53340;BME280;46212;50.258;19.062;2023-04-09T01:58:10;99180.16;;;4.70;100.00
53340;BME280;46212;50.258;19.062;2023-04-09T02:00:45;99171.56;;;4.71;100.00
53340;BME280;46212;50.258;19.062;2023-04-09T02:03:25;99176.69;;;4.66;100.00
53340;BME280;46212;50.258;19.062;2023-04-09T02:08:46;99171.63;;;4.64;100.00
53340;BME280;46212;50.258;19.062;2023-04-09T02:11:13;99170.81;;;4.67;100.00
53340;BME280;46212;50.258;19.062;2023-04-09T02:13:40;99170.06;;;4.60;99.92
53340;BME280;46212;50.258;19.062;2023-04-09T02:16:06;99172.84;;;4.56;100.00
53340;BME280;46212;50.258;19.062;2023-04-09T02:18:32;99172.78;;;4.63;100.00
53340;BME280;46212;50.258;19.062;2023-04-09T02:20:58;99174.03;;;4.55;100.00
53340;BME280;46212;50.258;19.062;2023-04-09T02:23:25;99173.69;;;4.50;100.00
53340;BME280;46212;50.258;19.062;2023-04-09T02:25:51;99172.91;;;4.49;100.00
53340;BME280;46212;50.258;19.062;2023-04-09T02:28:17;99165.34;;;4.67;100.00
53340;BME280;46212;50.258;19.062;2023-04-09T02:30:42;99171.03;;;4.91;100.00
53340;BME280;46212;50.258;19.062;2023-04-09T02:33:08;99166.31;;;4.95;100.00
53340;BME280;46212;50.258;19.062;2023-04-09T02:35:33;99159.53;;;5.06;99.58
53340;BME280;46212;50.258;19.062;2023-04-09T02:37:59;99168.97;;;5.02;98.79
53340;BME280;46212;50.258;19.062;2023-04-09T02:40:24;99163.22;;;4.86;99.47
53340;BME280;46212;50.258;19.062;2023-04-09T02:42:53;99162.09;;;4.79;100.00
53340;BME280;46212;50.258;19.062;2023-04-09T02:45:19;99168.78;;;4.78;100.00
53340;BME280;46212;50.258;19.062;2023-04-09T02:47:44;99165.59;;;4.83;100.00
53340;BME280;46212;50.258;19.062;2023-04-09T02:50:09;99174.56;;;4.88;100.00
53340;BME280;46212;50.258;19.062;2023-04-09T02:52:35;99167.59;;;4.76;100.00
53340;BME280;46212;50.258;19.062;2023-04-09T02:55:01;99167.25;;;4.74;100.00
53340;BME280;46212;50.258;19.062;2023-04-09T02:57:26;99163.59;;;4.91;100.00
53340;BME280;46212;50.258;19.062;2023-04-09T02:59:52;99171.66;;;5.05;99.89
53340;BME280;46212;50.258;19.062;2023-04-09T03:02:17;99171.69;;;5.02;99.37
53340;BME280;46212;50.258;19.062;2023-04-09T03:04:42;99170.56;;;4.96;99.44
53340;BME280;46212;50.258;19.062;2023-04-09T03:07:08;99169.91;;;4.85;99.63
53340;BME280;46212;50.258;19.062;2023-04-09T03:09:33;99164.53;;;4.70;100.00
53340;BME280;46212;50.258;19.062;2023-04-09T03:11:59;99170.84;;;4.64;100.00
53340;BME280;46212;50.258;19.062;2023-04-09T03:14:25;99170.06;;;4.63;100.00
53340;BME280;46212;50.258;19.062;2023-04-09T03:16:51;99172.41;;;4.65;100.00
53340;BME280;46212;50.258;19.062;2023-04-09T03:19:16;99171.63;;;4.64;100.00
53340;BME280;46212;50.258;19.062;2023-04-09T03:21:42;99172.06;;;4.59;100.00
53340;BME280;46212;50.258;19.062;2023-04-09T03:24:07;99174.75;;;4.63;100.00
53340;BME280;46212;50.258;19.062;2023-04-09T03:26:32;99179.06;;;4.60;100.00
53340;BME280;46212;50.258;19.062;2023-04-09T03:29:04;99181.78;;;4.64;100.00
53340;BME280;46212;50.258;19.062;2023-04-09T03:31:31;99171.53;;;4.75;100.00
53340;BME280;46212;50.258;19.062;2023-04-09T03:33:57;99178.13;;;4.81;100.00
53340;BME280;46212;50.258;19.062;2023-04-09T03:36:22;99177.03;;;4.71;100.00
53340;BME280;46212;50.258;19.062;2023-04-09T03:38:48;99174.78;;;4.59;100.00
53340;BME280;46212;50.258;19.062;2023-04-09T03:41:13;99171.63;;;4.64;100.00
53340;BME280;46212;50.258;19.062;2023-04-09T03:43:38;99169.25;;;4.66;100.00
53340;BME280;46212;50.258;19.062;2023-04-09T03:46:14;99160.56;;;4.78;100.00
53340;BME280;46212;50.258;19.062;2023-04-09T03:48:40;99166.81;;;4.79;100.00
53340;BME280;46212;50.258;19.062;2023-04-09T03:51:06;99167.94;;;4.85;100.00
53340;BME280;46212;50.258;19.062;2023-04-09T03:53:35;99168.03;;;4.74;100.00
53340;BME280;46212;50.258;19.062;2023-04-09T03:56:00;99168.41;;;4.73;100.00
53340;BME280;46212;50.258;19.062;2023-04-09T03:58:27;99167.66;;;4.72;100.00
53340;BME280;46212;50.258;19.062;2023-04-09T04:00:52;99172.25;;;4.82;100.00
53340;BME280;46212;50.258;19.062;2023-04-09T04:03:18;99173.47;;;4.78;100.00
53340;BME280;46212;50.258;19.062;2023-04-09T04:05:43;99176.94;;;4.82;100.00
53340;BME280;46212;50.258;19.062;2023-04-09T04:08:09;99189.91;;;4.74;100.00
53340;BME280;46212;50.258;19.062;2023-04-09T04:10:34;99191.09;;;4.73;100.00
53340;BME280;46212;50.258;19.062;2023-04-09T04:12:59;99193.41;;;4.78;100.00
53340;BME280;46212;50.258;19.062;2023-04-09T04:15:26;99187.97;;;4.71;100.00
53340;BME280;46212;50.258;19.062;2023-04-09T04:17:52;99182.91;;;4.66;100.00
53340;BME280;46212;50.258;19.062;2023-04-09T04:20:17;99172.69;;;4.77;100.00
53340;BME280;46212;50.258;19.062;2023-04-09T04:22:43;99169.97;;;4.74;100.00
53340;BME280;46212;50.258;19.062;2023-04-09T04:25:08;99178.13;;;4.81;100.00
53340;BME280;46212;50.258;19.062;2023-04-09T04:27:34;99179.66;;;4.82;100.00
53340;BME280;46212;50.258;19.062;2023-04-09T04:29:59;99177.31;;;4.88;100.00
53340;BME280;46212;50.258;19.062;2023-04-09T04:32:26;99177.16;;;5.02;100.00
53340;BME280;46212;50.258;19.062;2023-04-09T04:34:51;99177.63;;;4.97;100.00
53340;BME280;46212;50.258;19.062;2023-04-09T04:37:17;99183.88;;;4.97;100.00
53340;BME280;46212;50.258;19.062;2023-04-09T04:39:42;99174.94;;;4.90;100.00
53340;BME280;46212;50.258;19.062;2023-04-09T04:42:08;99176.00;;;5.03;100.00
53340;BME280;46212;50.258;19.062;2023-04-09T04:44:33;99177.09;;;5.12;100.00
53340;BME280;46212;50.258;19.062;2023-04-09T04:46:58;99181.78;;;5.12;100.00
53340;BME280;46212;50.258;19.062;2023-04-09T04:49:24;99178.16;;;5.22;100.00
53340;BME280;46212;50.258;19.062;2023-04-09T04:51:49;99182.88;;;5.18;100.00
53340;BME280;46212;50.258;19.062;2023-04-09T04:54:15;99182.34;;;5.33;100.00
53340;BME280;46212;50.258;19.062;2023-04-09T04:56:40;99182.03;;;5.24;99.87
53340;BME280;46212;50.258;19.062;2023-04-09T04:59:05;99174.91;;;5.34;99.77
53340;BME280;46212;50.258;19.062;2023-04-09T05:01:31;99187.44;;;5.35;99.85
53340;BME280;46212;50.258;19.062;2023-04-09T05:03:56;99181.94;;;5.35;99.96
53340;BME280;46212;50.258;19.062;2023-04-09T05:06:22;99190.25;;;5.24;100.00
53340;BME280;46212;50.258;19.062;2023-04-09T05:08:47;99184.41;;;5.26;100.00
53340;BME280;46212;50.258;19.062;2023-04-09T05:11:13;99189.41;;;5.31;100.00
53340;BME280;46212;50.258;19.062;2023-04-09T05:13:40;99183.94;;;5.31;100.00
53340;BME280;46212;50.258;19.062;2023-04-09T05:16:06;99191.34;;;5.34;100.00
53340;BME280;46212;50.258;19.062;2023-04-09T05:18:31;99200.44;;;5.24;100.00
53340;BME280;46212;50.258;19.062;2023-04-09T05:20:57;99190.25;;;5.24;100.00
53340;BME280;46212;50.258;19.062;2023-04-09T05:23:22;99203.91;;;5.31;100.00
53340;BME280;46212;50.258;19.062;2023-04-09T05:25:48;99198.09;;;5.26;100.00
53340;BME280;46212;50.258;19.062;2023-04-09T05:28:14;99198.00;;;5.33;100.00
53340;BME280;46212;50.258;19.062;2023-04-09T05:30:44;99194.44;;;5.36;100.00
53340;BME280;46212;50.258;19.062;2023-04-09T05:33:10;99199.16;;;5.35;100.00
53340;BME280;46212;50.258;19.062;2023-04-09T05:35:39;99199.06;;;5.43;100.00
53340;BME280;46212;50.258;19.062;2023-04-09T05:38:05;99198.63;;;5.51;100.00
53340;BME280;46212;50.258;19.062;2023-04-09T05:40:30;99199.25;;;5.62;100.00
53340;BME280;46212;50.258;19.062;2023-04-09T05:42:55;99209.84;;;5.64;99.86
53340;BME280;46212;50.258;19.062;2023-04-09T05:45:21;99208.13;;;5.77;99.44
53340;BME280;46212;50.258;19.062;2023-04-09T05:47:46;99207.66;;;5.85;98.96
53340;BME280;46212;50.258;19.062;2023-04-09T05:50:12;99211.25;;;5.75;99.05
53340;BME280;46212;50.258;19.062;2023-04-09T05:52:37;99209.69;;;5.74;99.13
53340;BME280;46212;50.258;19.062;2023-04-09T05:55:03;99209.69;;;5.74;99.07
53340;BME280;46212;50.258;19.062;2023-04-09T05:57:31;99212.44;;;5.74;99.53
53340;BME280;46212;50.258;19.062;2023-04-09T05:59:56;99218.63;;;5.85;99.51
53340;BME280;46212;50.258;19.062;2023-04-09T06:02:22;99216.09;;;6.02;98.88
53340;BME280;46212;50.258;19.062;2023-04-09T06:04:48;99217.09;;;6.15;97.75
53340;BME280;46212;50.258;19.062;2023-04-09T06:07:14;99221.06;;;6.10;96.57
53340;BME280;46212;50.258;19.062;2023-04-09T06:09:39;99222.66;;;6.08;95.76
53340;BME280;46212;50.258;19.062;2023-04-09T06:12:05;99222.25;;;6.09;95.48
53340;BME280;46212;50.258;19.062;2023-04-09T06:14:30;99223.34;;;6.15;95.57
53340;BME280;46212;50.258;19.062;2023-04-09T06:17:00;99227.59;;;6.20;96.14
53340;BME280;46212;50.258;19.062;2023-04-09T06:19:26;99227.56;;;6.23;96.62
53340;BME280;46212;50.258;19.062;2023-04-09T06:21:51;99218.91;;;6.25;96.64
53340;BME280;46212;50.258;19.062;2023-04-09T06:24:16;99221.16;;;6.33;96.22
53340;BME280;46212;50.258;19.062;2023-04-09T06:26:42;99222.91;;;6.47;95.48
53340;BME280;46212;50.258;19.062;2023-04-09T06:29:07;99229.81;;;6.59;94.22
53340;BME280;46212;50.258;19.062;2023-04-09T06:31:32;99231.22;;;6.70;94.07
53340;BME280;46212;50.258;19.062;2023-04-09T06:33:58;99232.94;;;6.87;93.99
53340;BME280;46212;50.258;19.062;2023-04-09T06:36:24;99238.94;;;6.79;94.45
53340;BME280;46212;50.258;19.062;2023-04-09T06:38:50;99234.31;;;6.72;93.21
53340;BME280;46212;50.258;19.062;2023-04-09T06:41:19;99241.03;;;6.94;92.93
53340;BME280;46212;50.258;19.062;2023-04-09T06:43:45;99236.94;;;7.06;90.63
53340;BME280;46212;50.258;19.062;2023-04-09T06:46:10;99244.47;;;7.02;90.11
53340;BME280;46212;50.258;19.062;2023-04-09T06:48:36;99247.16;;;7.06;89.57
53340;BME280;46212;50.258;19.062;2023-04-09T06:51:01;99253.00;;;7.08;89.31
53340;BME280;46212;50.258;19.062;2023-04-09T06:53:27;99251.66;;;7.19;88.46
53340;BME280;46212;50.258;19.062;2023-04-09T06:55:52;99246.81;;;7.04;88.78
53340;BME280;46212;50.258;19.062;2023-04-09T06:58:17;99252.34;;;7.00;88.91
53340;BME280;46212;50.258;19.062;2023-04-09T07:00:43;99253.97;;;6.98;89.15
53340;BME280;46212;50.258;19.062;2023-04-09T07:03:08;99252.16;;;7.11;89.80
53340;BME280;46212;50.258;19.062;2023-04-09T07:05:34;99243.72;;;7.25;89.83
53340;BME280;46212;50.258;19.062;2023-04-09T07:08:00;99248.13;;;7.42;89.54
53340;BME280;46212;50.258;19.062;2023-04-09T07:10:26;99260.66;;;7.43;88.82
53340;BME280;46212;50.258;19.062;2023-04-09T07:12:51;99253.25;;;7.40;89.49
53340;BME280;46212;50.258;19.062;2023-04-09T07:15:16;99258.63;;;7.47;89.04
53340;BME280;46212;50.258;19.062;2023-04-09T07:17:42;99259.41;;;7.47;88.85
53340;BME280;46212;50.258;19.062;2023-04-09T07:20:07;99256.47;;;7.58;88.80
53340;BME280;46212;50.258;19.062;2023-04-09T07:22:34;99264.03;;;7.54;88.17
53340;BME280;46212;50.258;19.062;2023-04-09T07:25:00;99261.56;;;7.60;88.96
53340;BME280;46212;50.258;19.062;2023-04-09T07:27:26;99256.88;;;7.80;88.03
53340;BME280;46212;50.258;19.062;2023-04-09T07:29:54;99260.13;;;7.94;87.01
53340;BME280;46212;50.258;19.062;2023-04-09T07:32:20;99261.47;;;8.06;86.04
53340;BME280;46212;50.258;19.062;2023-04-09T07:34:45;99259.03;;;8.12;86.31
53340;BME280;46212;50.258;19.062;2023-04-09T07:37:10;99264.28;;;8.22;85.87
53340;BME280;46212;50.258;19.062;2023-04-09T07:39:37;99256.47;;;8.21;85.51
53340;BME280;46212;50.258;19.062;2023-04-09T07:42:03;99259.84;;;8.09;86.81
53340;BME280;46212;50.258;19.062;2023-04-09T07:44:32;99263.50;;;8.22;85.90
53340;BME280;46212;50.258;19.062;2023-04-09T07:46:58;99265.06;;;8.23;85.99
53340;BME280;46212;50.258;19.062;2023-04-09T07:49:23;99258.94;;;8.35;84.49
53340;BME280;46212;50.258;19.062;2023-04-09T07:51:48;99260.59;;;8.32;83.99
53340;BME280;46212;50.258;19.062;2023-04-09T07:54:14;99255.84;;;8.33;84.02
53340;BME280;46212;50.258;19.062;2023-04-09T07:56:39;99255.78;;;8.36;83.39
53340;BME280;46212;50.258;19.062;2023-04-09T07:59:05;99257.91;;;8.29;84.76
53340;BME280;46212;50.258;19.062;2023-04-09T08:01:31;99260.50;;;8.36;84.13
53340;BME280;46212;50.258;19.062;2023-04-09T08:03:56;99265.44;;;8.44;84.21
53340;BME280;46212;50.258;19.062;2023-04-09T08:06:21;99264.59;;;8.47;84.40
53340;BME280;46212;50.258;19.062;2023-04-09T08:08:47;99264.94;;;8.49;84.00
53340;BME280;46212;50.258;19.062;2023-04-09T08:11:12;99267.34;;;8.47;84.29
53340;BME280;46212;50.258;19.062;2023-04-09T08:13:38;99275.44;;;8.54;83.70
53340;BME280;46212;50.258;19.062;2023-04-09T08:16:03;99275.66;;;8.44;84.91
53340;BME280;46212;50.258;19.062;2023-04-09T08:18:29;99271.22;;;8.50;84.25
53340;BME280;46212;50.258;19.062;2023-04-09T08:20:55;99283.78;;;8.51;84.33
53340;BME280;46212;50.258;19.062;2023-04-09T08:23:20;99281.94;;;8.64;83.72
53340;BME280;46212;50.258;19.062;2023-04-09T08:25:46;99279.88;;;8.68;83.61
53340;BME280;46212;50.258;19.062;2023-04-09T08:28:11;99280.38;;;8.63;84.27
53340;BME280;46212;50.258;19.062;2023-04-09T08:30:37;99288.34;;;8.58;84.94
53340;BME280;46212;50.258;19.062;2023-04-09T08:33:02;99279.31;;;8.57;85.44
53340;BME280;46212;50.258;19.062;2023-04-09T08:35:31;99285.31;;;8.72;84.85
53340;BME280;46212;50.258;19.062;2023-04-09T08:37:57;99290.88;;;8.88;83.40
53340;BME280;46212;50.258;19.062;2023-04-09T08:40:23;99284.13;;;8.89;82.88
53340;BME280;46212;50.258;19.062;2023-04-09T08:42:53;99289.91;;;8.78;83.39
53340;BME280;46212;50.258;19.062;2023-04-09T08:45:22;99285.91;;;8.79;84.07
53340;BME280;46212;50.258;19.062;2023-04-09T08:47:49;99289.59;;;9.08;82.55
53340;BME280;46212;50.258;19.062;2023-04-09T08:50:15;99294.06;;;9.02;82.86
53340;BME280;46212;50.258;19.062;2023-04-09T08:52:42;99292.09;;;9.03;82.52
53340;BME280;46212;50.258;19.062;2023-04-09T08:55:10;99287.44;;;9.00;82.53
53340;BME280;46212;50.258;19.062;2023-04-09T08:57:37;99290.66;;;8.79;82.85
53340;BME280;46212;50.258;19.062;2023-04-09T09:00:03;99292.34;;;8.73;83.84
53340;BME280;46212;50.258;19.062;2023-04-09T09:02:29;99285.44;;;8.84;83.46
53340;BME280;46212;50.258;19.062;2023-04-09T09:04:56;99280.78;;;8.81;83.04
53340;BME280;46212;50.258;19.062;2023-04-09T09:07:26;99289.72;;;8.85;83.31
53340;BME280;46212;50.258;19.062;2023-04-09T09:09:53;99286.28;;;8.81;82.61
53340;BME280;46212;50.258;19.062;2023-04-09T09:12:39;99292.41;;;8.89;82.61
53340;BME280;46212;50.258;19.062;2023-04-09T09:15:24;99278.63;;;8.89;83.11
53340;BME280;46212;50.258;19.062;2023-04-09T09:17:54;99294.72;;;8.90;83.56
53340;BME280;46212;50.258;19.062;2023-04-09T09:20:20;99288.34;;;8.77;84.19
53340;BME280;46212;50.258;19.062;2023-04-09T09:22:51;99286.19;;;8.85;84.31
53340;BME280;46212;50.258;19.062;2023-04-09T09:25:16;99285.00;;;8.86;84.30
53340;BME280;46212;50.258;19.062;2023-04-09T09:27:42;99290.09;;;8.87;84.35
53340;BME280;46212;50.258;19.062;2023-04-09T09:30:09;99290.41;;;8.89;83.23
53340;BME280;46212;50.258;19.062;2023-04-09T09:32:44;99286.41;;;8.94;83.52
53340;BME280;46212;50.258;19.062;2023-04-09T09:35:10;99292.25;;;8.96;83.66
53340;BME280;46212;50.258;19.062;2023-04-09T09:37:35;99298.72;;;9.05;83.20
53340;BME280;46212;50.258;19.062;2023-04-09T09:40:01;99287.16;;;9.11;82.88
53340;BME280;46212;50.258;19.062;2023-04-09T09:42:26;99294.78;;;9.23;81.94
53340;BME280;46212;50.258;19.062;2023-04-09T09:44:53;99293.63;;;9.20;82.48
53340;BME280;46212;50.258;19.062;2023-04-09T09:47:20;99297.88;;;9.25;81.59
53340;BME280;46212;50.258;19.062;2023-04-09T09:49:50;99294.50;;;9.33;81.89
53340;BME280;46212;50.258;19.062;2023-04-09T09:52:20;99287.81;;;9.34;81.67
53340;BME280;46212;50.258;19.062;2023-04-09T09:54:50;99285.22;;;9.43;80.37
53340;BME280;46212;50.258;19.062;2023-04-09T09:57:19;99286.50;;;9.39;80.13
53340;BME280;46212;50.258;19.062;2023-04-09T09:59:56;99282.03;;;9.45;80.17
53340;BME280;46212;50.258;19.062;2023-04-09T10:02:24;99294.16;;;9.47;80.28
53340;BME280;46212;50.258;19.062;2023-04-09T10:04:55;99287.34;;;9.36;80.14
53340;BME280;46212;50.258;19.062;2023-04-09T10:07:24;99286.06;;;9.56;79.29
53340;BME280;46212;50.258;19.062;2023-04-09T10:09:52;99294.31;;;9.73;78.58
53340;BME280;46212;50.258;19.062;2023-04-09T10:12:20;99281.19;;;9.77;78.73
53340;BME280;46212;50.258;19.062;2023-04-09T10:14:48;99290.44;;;9.70;80.06
53340;BME280;46212;50.258;19.062;2023-04-09T10:17:16;99284.81;;;9.74;78.70
53340;BME280;46212;50.258;19.062;2023-04-09T10:19:46;99289.44;;;9.93;76.59
53340;BME280;46212;50.258;19.062;2023-04-09T10:22:17;99280.09;;;10.03;75.97
53340;BME280;46212;50.258;19.062;2023-04-09T10:24:43;99285.19;;;10.04;75.94
53340;BME280;46212;50.258;19.062;2023-04-09T10:27:11;99273.63;;;10.09;76.48
53340;BME280;46212;50.258;19.062;2023-04-09T10:29:41;99268.28;;;10.02;76.73
53340;BME280;46212;50.258;19.062;2023-04-09T10:32:06;99279.22;;;10.06;76.26
53340;BME280;46212;50.258;19.062;2023-04-09T10:34:40;99272.75;;;10.12;75.43
53340;BME280;46212;50.258;19.062;2023-04-09T10:37:08;99266.38;;;10.16;74.20
53340;BME280;46212;50.258;19.062;2023-04-09T10:39:38;99268.41;;;10.28;74.06
53340;BME280;46212;50.258;19.062;2023-04-09T10:42:11;99268.66;;;10.33;74.48
53340;BME280;46212;50.258;19.062;2023-04-09T10:44:39;99267.31;;;10.38;74.68
53340;BME280;46212;50.258;19.062;2023-04-09T10:47:07;99267.91;;;10.45;73.78
53340;BME280;46212;50.258;19.062;2023-04-09T10:49:38;99268.13;;;10.51;73.12
53340;BME280;46212;50.258;19.062;2023-04-09T10:52:10;99264.94;;;10.52;73.20
53340;BME280;46212;50.258;19.062;2023-04-09T10:54:38;99263.97;;;10.59;72.21
53340;BME280;46212;50.258;19.062;2023-04-09T11:02:09;99252.47;;;10.86;71.93
53340;BME280;46212;50.258;19.062;2023-04-09T11:04:55;99259.66;;;11.08;71.20
53340;BME280;46212;50.258;19.062;2023-04-09T11:07:26;99259.19;;;11.23;71.25
53340;BME280;46212;50.258;19.062;2023-04-09T11:09:54;99262.59;;;11.52;72.03
53340;BME280;46212;50.258;19.062;2023-04-09T11:12:19;99262.72;;;11.95;69.55
53340;BME280;46212;50.258;19.062;2023-04-09T11:14:45;99270.63;;;12.06;67.90
53340;BME280;46212;50.258;19.062;2023-04-09T11:17:11;99266.84;;;12.12;67.07
53340;BME280;46212;50.258;19.062;2023-04-09T11:19:37;99265.03;;;12.40;66.33
53340;BME280;46212;50.258;19.062;2023-04-09T11:22:05;99256.88;;;12.37;64.71
53340;BME280;46212;50.258;19.062;2023-04-09T11:24:45;99258.44;;;12.47;64.57
53340;BME280;46212;50.258;19.062;2023-04-09T11:27:15;99254.78;;;12.50;65.00
53340;BME280;46212;50.258;19.062;2023-04-09T11:29:43;99257.91;;;12.92;64.11
53340;BME280;46212;50.258;19.062;2023-04-09T11:32:11;99255.09;;;13.13;63.63
53340;BME280;46212;50.258;19.062;2023-04-09T11:34:36;99258.88;;;13.28;62.44
53340;BME280;46212;50.258;19.062;2023-04-09T11:37:03;99258.88;;;13.28;61.95
53340;BME280;46212;50.258;19.062;2023-04-09T11:39:35;99263.19;;;13.39;61.98
53340;BME280;46212;50.258;19.062;2023-04-09T11:42:01;99261.06;;;13.52;61.54
53340;BME280;46212;50.258;19.062;2023-04-09T11:44:26;99253.38;;;13.65;61.10
53340;BME280;46212;50.258;19.062;2023-04-09T11:46:52;99255.38;;;13.73;59.13
53340;BME280;46212;50.258;19.062;2023-04-09T11:49:18;99260.94;;;13.73;59.40
53340;BME280;46212;50.258;19.062;2023-04-09T11:51:44;99260.00;;;13.76;60.08
53340;BME280;46212;50.258;19.062;2023-04-09T11:54:11;99266.38;;;14.04;59.06
53340;BME280;46212;50.258;19.062;2023-04-09T11:56:36;99263.09;;;14.24;58.50
53340;BME280;46212;50.258;19.062;2023-04-09T11:59:02;99251.91;;;14.69;57.70
53340;BME280;46212;50.258;19.062;2023-04-09T12:01:32;99252.88;;;15.08;55.91
53340;BME280;46212;50.258;19.062;2023-04-09T12:03:58;99252.91;;;14.99;55.98
53340;BME280;46212;50.258;19.062;2023-04-09T12:06:24;99246.69;;;15.04;55.50
53340;BME280;46212;50.258;19.062;2023-04-09T12:08:55;99250.59;;;15.30;53.90
53340;BME280;46212;50.258;19.062;2023-04-09T12:11:27;99253.59;;;15.18;53.24
53340;BME280;46212;50.258;19.062;2023-04-09T12:13:59;99252.16;;;14.89;53.92
53340;BME280;46212;50.258;19.062;2023-04-09T12:16:25;99249.75;;;14.73;54.20
53340;BME280;46212;50.258;19.062;2023-04-09T12:18:50;99250.56;;;14.65;55.08
53340;BME280;46212;50.258;19.062;2023-04-09T12:21:23;99249.25;;;14.84;56.83
53340;BME280;46212;50.258;19.062;2023-04-09T12:23:48;99252.78;;;15.26;55.48
53340;BME280;46212;50.258;19.062;2023-04-09T12:26:14;99255.03;;;15.37;55.07
53340;BME280;46212;50.258;19.062;2023-04-09T12:28:39;99247.59;;;15.67;55.09
53340;BME280;46212;50.258;19.062;2023-04-09T12:31:08;99248.78;;;15.75;51.74
53340;BME280;46212;50.258;19.062;2023-04-09T12:33:34;99242.84;;;16.20;51.22
53340;BME280;46212;50.258;19.062;2023-04-09T12:36:03;99249.13;;;16.44;49.45
53340;BME280;46212;50.258;19.062;2023-04-09T12:38:28;99251.91;;;16.44;48.73
53340;BME280;46212;50.258;19.062;2023-04-09T12:40:54;99248.81;;;17.71;45.65
53340;BME280;46212;50.258;19.062;2023-04-09T12:43:19;99246.28;;;19.27;42.12
53340;BME280;46212;50.258;19.062;2023-04-09T12:45:44;99248.09;;;17.56;44.40
53340;BME280;46212;50.258;19.062;2023-04-09T12:48:10;99237.72;;;17.07;45.49
53340;BME280;46212;50.258;19.062;2023-04-09T12:50:36;99228.19;;;19.76;42.24
53340;BME280;46212;50.258;19.062;2023-04-09T12:53:02;99223.16;;;19.86;41.62
53340;BME280;46212;50.258;19.062;2023-04-09T12:55:27;99226.97;;;18.41;43.37
53340;BME280;46212;50.258;19.062;2023-04-09T12:57:53;99225.66;;;17.50;42.60
53340;BME280;46212;50.258;19.062;2023-04-09T13:00:18;99233.94;;;17.44;44.04
53340;BME280;46212;50.258;19.062;2023-04-09T13:02:43;99224.63;;;18.91;41.85
53340;BME280;46212;50.258;19.062;2023-04-09T13:05:09;99228.22;;;17.88;43.56
53340;BME280;46212;50.258;19.062;2023-04-09T13:07:35;99226.84;;;17.43;45.28